Athelstane, WI

8:49 AM CDT on July 28, 2014 (GMT -0500)
Athelstane Township (KWIATHEL1) Elev 966 ft | 45.40 °N, 88.12 °W | Change Station

Current weather conditions updated 3 seconds ago

Overcast
Overcast
56.8 °F
Feels Like 56.8 °F
N
3.5
Wind Variable Wind from NW
Gusts 3.5 mph

Today is forecast to be nearly the same temperature as yesterday.

Today
High -- | Low -- °F
--% Chance of Precip.
Yesterday
High -- | Low -- °F
Precip. -- in
5:32 AM 8:25 PM
New Moon, 2% visible
Pressure 30.10 in
Visibility 10.0 miles
Clouds Overcast 6000 ft
Dew Point 49 °F
Humidity 75%
Rainfall 0.00 in
Snow Depth Not available.
UV 1 out of 12
Pollen 7.90 out of 12
Air Quality Not available.
Flu Activity Not available.
METAR KIMT 281254Z AUTO 30006KT 10SM OVC060 11/08 A3009 RMK AO2 SLP192 T01110083

More Conditions Fewer Conditions

Pressure 30.10 in
Visibility 10.0 miles
Clouds Overcast 6000 ft
Dew Point 49 °F
Humidity 75%
Rainfall 0.00 in
Snow Depth Not available.
UV 1 out of 12
Pollen 7.90 out of 12
Air Quality Not available.
Flu Activity Not available.
METAR KIMT 281254Z AUTO 30006KT 10SM OVC060 11/08 A3009 RMK AO2 SLP192 T01110083

More Conditions Fewer Conditions

10-Day Weather Forecast

Almanac

Astronomy

Jul. 28, 2014 Rise Set
Actual Time 5:32 AM CDT 8:25 PM CDT
Civil Twilight 4:57 AM CDT 9:00 PM CDT
Nautical Twilight 4:13 AM CDT 9:44 PM CDT
Astronomical Twilight 3:21 AM CDT 10:36 PM CDT
Moon 7:21 AM CDT 8:58 PM CDT
Length of Visible Light 16h 02m
Length of Day
14h 53m
Tomorrow will be 2m 20s shorter.
New Moon, 2% of the Moon is Illuminated
Today
New Moon
Aug 3
First Quarter
Aug 10
Full
Aug 17
Last Quarter
Aug 25
New

Today's Extremes

State Highs State Lows

Community

WunderPhotos

Upload Photos

1,738,329 photos uploaded!

Nearby

Snow Depth

Station Depth Elevation
No new snow has been reported.

Earthquake Activity

City Distance Mag. Time & Date
No recent earthquake activity has been reported nearby.
Minimum magnitude displayed is 2.5.

Coastal Water Temperatures

Place Temperature
No Stations Reporting

Nearby Weather Stations

Station Location Temp. Dew Point Humidity Wind Precip. Elev Updated Type
Athelstane Township, Athelstane, WI 56.8 °F 49 °F 75% NW  at  3.5 mph 0.00 in / hr 966 ft 8:49 AM CDT Rapid Fire
Pine Ridge Lake, Lakewood, WI 54.7 °F 50 °F 85% WSW  at  0.0 mph 0.00 in / hr 1266 ft 8:43 AM CDT Normal
Lakewood, WI 55.1 °F 50 °F 82% NNW  at  0.0 mph 0.00 in / hr 1219 ft 8:30 AM CDT Normal
Wiggins Lake, Pembine, WI 55.8 °F 48 °F 75% WNW  at  0.0 mph 0.00 in / hr 997 ft 8:48 AM CDT Rapid Fire
RAWS LAONA WI, Wabeno, WI 53 °F 50 °F 89% NW  at  3 mph 0.00 in / hr 1560 ft 8:01 AM CDT MADIS
Mountain, Mountain, WI 56.8 °F 51 °F 81% North  at  4.0 mph 0.00 in / hr 925 ft 8:49 AM CDT Rapid Fire
Silver Lake, Laona, WI, Laona, WI 57.4 °F 55 °F 92% West  at  1.3 mph 0.00 in / hr 1581 ft 8:49 AM CDT Rapid Fire

Show More Stations Show Fewer Stations